El Paso, TX (88582)

10:11 PM MST on March 02, 2015 (GMT -0700)
Shock | Change Station
CLOSE
Current Station
Personal Weather Station
Location: El Paso, TX
Elevation: 3924 ft
Nearby Weather Stations

Elev 3924 ft 31.76 °N, 106.33 °W | Updated 12 minutes ago

Overcast
Overcast
59.0 °F
Feels Like 59.0 °F
N
2.7
Wind Variable Wind from SSW

Today
High -- | Low -- °F
--% Chance of Precip.
Yesterday
High -- | Low -- °F
Precip. -- in
6:31 AM 6:03 PM
Waxing Gibbous, 94% visible
Pressure 29.84 in
Visibility 10.0 miles
Clouds Scattered Clouds 9000 ft
Mostly Cloudy 15000 ft
Dew Point 46 °F
Humidity 62%
Rainfall 0.07 in
Snow Depth Not available.
UV 0 out of 12
Pollen 7.40 out of 12
Air Quality Not available.
Flu Activity Not available.
METAR KELP 030451Z 21008KT 10SM SCT090 BKN150 16/07 A2997 RMK AO2 SLP105 T01610067

More Conditions Fewer Conditions

Pressure 29.84 in
Visibility 10.0 miles
Clouds Scattered Clouds 9000 ft
Mostly Cloudy 15000 ft
Dew Point 46 °F
Humidity 62%
Rainfall 0.07 in
Snow Depth Not available.
UV 0 out of 12
Pollen 7.40 out of 12
Air Quality Not available.
Flu Activity Not available.
METAR KELP 030451Z 21008KT 10SM SCT090 BKN150 16/07 A2997 RMK AO2 SLP105 T01610067

More Conditions Fewer Conditions

10-Day Weather Forecast

Almanac

Astronomy

Mar. 02, 2015 Rise Set
Actual Time
Civil Twilight
Nautical Twilight
Astronomical Twilight
Moon
Length of Visible Light
Length of Day
Tomorrow will be .
, % of the Moon is Illuminated

Today's Extremes

State Highs State Lows

Community

WunderPhotos

Upload Photos

1,802,066 photos uploaded!

WunderBlogs® & News

Nearby

Air Quality

  Air Quality AQ Index Pollutant
Not available.

Snow Depth

Station Depth Elevation

Earthquake Activity

City Distance Mag. Time & Date
Minimum magnitude displayed is 2.5.

Coastal Water Temperatures

Place Temperature

Nearby Weather Stations